Time;durP1;ratioP1;P1;durP2;ratioP2;P2;SDS_P1;SDS_P2;PMS_P1;PMS_P2;Temp;Humidity;BMP_temperature;BMP_pressure;BME280_temperature;BME280_humidity;BME280_pressure;Samples;Min_cycle;Max_cycle;Signal;HPM_P1;HPM_P2
2021/11/13 00:01:02;;;;;;;4.47;3.40;;;;;;;;;;5050909;28;20029;-46
2021/11/13 00:03:28;;;;;;;4.28;3.30;;;;;;;;;;5050732;28;20370;-45
2021/11/13 00:05:54;;;;;;;5.57;3.80;;;;;;;;;;5049454;28;20084;-46
2021/11/13 00:08:20;;;;;;;3.90;3.30;;;;;;;;;;5050765;28;20415;-45
2021/11/13 00:10:47;;;;;;;4.30;3.38;;;;;;;;;;5050126;28;20025;-49
2021/11/13 00:13:13;;;;;;;4.47;3.70;;;;;;;;;;5044751;28;20476;-46
2021/11/13 00:15:39;;;;;;;3.80;3.08;;;;;;;;;;5029943;28;20093;-46
2021/11/13 00:18:06;;;;;;;3.42;2.97;;;;;;;;;;5030932;28;20092;-46
2021/11/13 00:20:31;;;;;;;4.45;3.50;;;;;;;;;;5030949;28;20021;-59
2021/11/13 00:22:58;;;;;;;4.55;3.67;;;;;;;;;;5050166;28;20052;-46
2021/11/13 00:25:25;;;;;;;4.82;3.50;;;;;;;;;;5050609;28;20053;-46
2021/11/13 00:27:51;;;;;;;4.05;3.38;;;;;;;;;;5049721;28;20017;-48
2021/11/13 00:30:18;;;;;;;3.88;3.47;;;;;;;;;;5050539;28;20374;-48
2021/11/13 00:32:44;;;;;;;5.30;3.95;;;;;;;;;;5047965;28;20033;-46
2021/11/13 00:35:11;;;;;;;4.20;3.38;;;;;;;;;;5030468;28;20072;-45
2021/11/13 00:37:37;;;;;;;3.97;3.35;;;;;;;;;;5029805;28;20029;-45
2021/11/13 00:40:04;;;;;;;4.25;3.50;;;;;;;;;;5046278;28;20039;-45
2021/11/13 00:42:30;;;;;;;4.57;3.67;;;;;;;;;;5050237;28;20112;-59
2021/11/13 00:44:56;;;;;;;3.60;2.97;;;;;;;;;;5030189;28;20029;-45
2021/11/13 00:47:22;;;;;;;4.53;3.05;;;;;;;;;;5030501;28;20037;-45
2021/11/13 00:49:48;;;;;;;6.00;3.20;;;;;;;;;;5044278;28;20094;-49
2021/11/13 00:52:14;;;;;;;4.32;3.47;;;;;;;;;;5050898;28;20135;-45
2021/11/13 00:54:40;;;;;;;4.45;3.83;;;;;;;;;;5033334;28;20096;-46
2021/11/13 00:57:09;;;;;;;4.68;3.40;;;;;;;;;;5034080;28;20021;-46
2021/11/13 00:59:36;;;;;;;3.53;3.22;;;;;;;;;;5033167;28;20037;-46
2021/11/13 01:02:03;;;;;;;4.38;3.15;;;;;;;;;;5034181;28;20018;-48
2021/11/13 01:04:29;;;;;;;3.35;3.00;;;;;;;;;;5073697;28;20039;-46
2021/11/13 01:06:55;;;;;;;3.35;2.88;;;;;;;;;;5072688;28;20111;-47
2021/11/13 01:09:21;;;;;;;4.10;3.70;;;;;;;;;;5073746;28;20031;-46
2021/11/13 01:11:47;;;;;;;4.15;3.60;;;;;;;;;;5072988;28;20029;-46
2021/11/13 01:14:13;;;;;;;4.65;3.53;;;;;;;;;;5073310;28;20059;-46
2021/11/13 01:16:39;;;;;;;4.28;3.13;;;;;;;;;;5072412;28;20117;-45
2021/11/13 01:19:05;;;;;;;3.85;3.45;;;;;;;;;;5073535;28;20504;-46
2021/11/13 01:21:31;;;;;;;4.20;3.65;;;;;;;;;;5071130;28;20043;-55
2021/11/13 01:23:58;;;;;;;4.93;3.08;;;;;;;;;;5069010;28;20028;-46
2021/11/13 01:26:24;;;;;;;4.80;3.70;;;;;;;;;;5073511;28;20025;-46
2021/11/13 01:28:51;;;;;;;4.40;3.42;;;;;;;;;;5072255;28;20532;-45
2021/11/13 01:31:17;;;;;;;4.55;3.72;;;;;;;;;;5073371;28;20025;-52
2021/11/13 01:33:44;;;;;;;3.97;3.35;;;;;;;;;;5071767;28;20044;-46
2021/11/13 01:36:10;;;;;;;4.93;3.88;;;;;;;;;;5073493;28;20032;-47
2021/11/13 01:38:37;;;;;;;4.05;3.65;;;;;;;;;;5072512;28;20409;-51
2021/11/13 01:41:05;;;;;;;4.47;3.45;;;;;;;;;;5073251;28;20025;-47
2021/11/13 01:43:35;;;;;;;5.90;4.15;;;;;;;;;;5072811;28;20036;-61
2021/11/13 01:46:05;;;;;;;4.57;3.55;;;;;;;;;;5073180;28;20024;-46
2021/11/13 01:48:31;;;;;;;3.97;3.20;;;;;;;;;;5073127;28;20028;-58
2021/11/13 01:50:58;;;;;;;3.70;3.40;;;;;;;;;;5072444;28;20485;-50
2021/11/13 01:53:24;;;;;;;4.00;3.40;;;;;;;;;;5072800;28;20024;-52
2021/11/13 01:55:50;;;;;;;4.70;3.92;;;;;;;;;;5072343;28;20525;-50
2021/11/13 01:58:16;;;;;;;3.88;3.30;;;;;;;;;;5072935;28;20067;-51
2021/11/13 02:00:44;;;;;;;3.92;3.45;;;;;;;;;;5071602;28;20044;-51
2021/11/13 02:03:11;;;;;;;5.25;4.10;;;;;;;;;;5072129;28;20032;-51
2021/11/13 02:05:37;;;;;;;6.70;4.10;;;;;;;;;;5072091;28;20040;-47
2021/11/13 02:08:04;;;;;;;4.22;3.47;;;;;;;;;;5072220;28;20031;-48
2021/11/13 02:10:31;;;;;;;5.63;3.72;;;;;;;;;;5072551;28;20024;-46
2021/11/13 02:12:57;;;;;;;4.03;3.50;;;;;;;;;;5071912;28;20025;-47
2021/11/13 02:15:24;;;;;;;5.28;3.47;;;;;;;;;;5072480;28;20103;-47
2021/11/13 02:17:50;;;;;;;4.68;3.78;;;;;;;;;;5071525;28;20044;-46
2021/11/13 02:20:27;;;;;;;3.63;3.20;;;;;;;;;;5072396;28;20044;-46
2021/11/13 02:22:55;;;;;;;4.30;3.70;;;;;;;;;;5063551;28;20024;-48
2021/11/13 02:25:22;;;;;;;3.78;3.10;;;;;;;;;;5072669;28;20123;-48
2021/11/13 02:27:48;;;;;;;5.65;3.35;;;;;;;;;;5071989;28;20105;-46
2021/11/13 02:30:15;;;;;;;4.72;3.83;;;;;;;;;;5071927;28;20435;-46
2021/11/13 02:32:41;;;;;;;3.60;3.08;;;;;;;;;;5070957;28;20103;-48
2021/11/13 02:35:08;;;;;;;4.30;3.58;;;;;;;;;;5071660;28;20044;-46
2021/11/13 02:37:35;;;;;;;3.92;3.03;;;;;;;;;;5070944;28;20033;-59
2021/11/13 02:40:03;;;;;;;3.88;3.25;;;;;;;;;;5070988;28;20385;-46
2021/11/13 02:42:29;;;;;;;4.05;3.50;;;;;;;;;;5071674;28;20020;-46
2021/11/13 02:44:55;;;;;;;4.78;3.58;;;;;;;;;;5031481;28;20032;-45
2021/11/13 02:47:21;;;;;;;4.55;3.10;;;;;;;;;;5031577;28;20029;-45
2021/11/13 02:49:48;;;;;;;4.30;3.88;;;;;;;;;;5061918;28;20090;-50
2021/11/13 02:52:15;;;;;;;4.38;3.50;;;;;;;;;;5071956;28;20404;-45
2021/11/13 02:54:44;;;;;;;4.78;3.85;;;;;;;;;;5070445;28;20029;-45
2021/11/13 02:57:10;;;;;;;4.90;3.55;;;;;;;;;;5071715;28;20024;-45
2021/11/13 02:59:48;;;;;;;4.03;3.63;;;;;;;;;;5071010;28;20434;-45
2021/11/13 03:02:14;;;;;;;3.75;2.90;;;;;;;;;;5071698;28;20025;-45
2021/11/13 03:04:40;;;;;;;5.32;3.42;;;;;;;;;;5070581;28;20524;-46
2021/11/13 03:07:07;;;;;;;4.13;3.72;;;;;;;;;;5071595;28;20090;-48
2021/11/13 03:09:33;;;;;;;4.03;3.45;;;;;;;;;;5070860;28;20394;-58
2021/11/13 03:11:59;;;;;;;5.22;3.78;;;;;;;;;;5071081;28;20504;-49
2021/11/13 03:14:25;;;;;;;3.83;3.20;;;;;;;;;;5069798;28;20526;-45
2021/11/13 03:16:52;;;;;;;4.30;3.90;;;;;;;;;;5070612;28;20622;-45
2021/11/13 03:19:18;;;;;;;4.20;3.67;;;;;;;;;;5071091;28;20111;-46
2021/11/13 03:21:44;;;;;;;4.72;3.55;;;;;;;;;;5066509;28;20027;-45
2021/11/13 03:24:11;;;;;;;4.80;3.72;;;;;;;;;;5065631;28;20032;-47
2021/11/13 03:26:39;;;;;;;3.72;3.30;;;;;;;;;;5070556;28;20127;-46
2021/11/13 03:29:08;;;;;;;4.03;3.25;;;;;;;;;;5070030;28;20017;-45
2021/11/13 03:31:36;;;;;;;4.47;3.95;;;;;;;;;;5070461;28;20063;-58
2021/11/13 03:34:02;;;;;;;4.45;3.55;;;;;;;;;;5070285;28;20397;-46
2021/11/13 03:36:28;;;;;;;4.07;3.40;;;;;;;;;;5070801;28;20109;-46
2021/11/13 03:38:54;;;;;;;4.55;3.35;;;;;;;;;;5070366;28;20020;-45
2021/11/13 03:41:21;;;;;;;3.83;3.17;;;;;;;;;;5070995;28;20024;-46
2021/11/13 03:43:47;;;;;;;4.45;3.25;;;;;;;;;;5070187;28;20032;-45
2021/11/13 03:46:14;;;;;;;5.03;3.75;;;;;;;;;;5070869;28;20032;-46
2021/11/13 03:48:41;;;;;;;4.90;3.40;;;;;;;;;;5069991;28;20359;-48
2021/11/13 03:51:07;;;;;;;4.28;3.42;;;;;;;;;;5070855;28;20020;-46
2021/11/13 03:53:36;;;;;;;4.30;3.42;;;;;;;;;;5070158;28;20024;-60
2021/11/13 03:56:02;;;;;;;3.95;3.05;;;;;;;;;;5071167;28;20504;-49
2021/11/13 03:58:28;;;;;;;4.25;3.10;;;;;;;;;;5070734;28;20024;-52
2021/11/13 04:00:54;;;;;;;4.03;3.35;;;;;;;;;;5070500;28;20016;-51
2021/11/13 04:03:20;;;;;;;4.53;3.53;;;;;;;;;;5070670;28;20377;-51
2021/11/13 04:05:47;;;;;;;4.50;3.70;;;;;;;;;;5069937;28;20465;-50
2021/11/13 04:08:13;;;;;;;4.38;3.78;;;;;;;;;;5070769;28;20035;-48
2021/11/13 04:10:39;;;;;;;4.05;3.30;;;;;;;;;;5070022;28;20048;-47
2021/11/13 04:13:06;;;;;;;3.45;3.00;;;;;;;;;;5070319;28;20020;-48
2021/11/13 04:15:32;;;;;;;4.25;3.25;;;;;;;;;;5070634;28;20035;-60
2021/11/13 04:17:58;;;;;;;3.72;3.00;;;;;;;;;;5070741;28;20111;-51
2021/11/13 04:20:24;;;;;;;3.92;3.17;;;;;;;;;;5070626;28;20035;-49
2021/11/13 04:22:51;;;;;;;3.70;3.30;;;;;;;;;;5069735;28;20059;-46
2021/11/13 04:25:18;;;;;;;3.65;3.13;;;;;;;;;;5072625;28;20028;-45
2021/11/13 04:27:44;;;;;;;3.38;3.00;;;;;;;;;;5073812;28;20664;-45
2021/11/13 04:30:13;;;;;;;4.60;3.58;;;;;;;;;;5034661;28;20036;-45
2021/11/13 04:32:39;;;;;;;5.82;3.30;;;;;;;;;;5068652;28;20086;-44
2021/11/13 04:35:18;;;;;;;3.95;3.25;;;;;;;;;;5074131;28;20053;-48
2021/11/13 04:37:46;;;;;;;4.43;3.60;;;;;;;;;;5073588;28;20028;-47
2021/11/13 04:40:12;;;;;;;3.47;3.08;;;;;;;;;;5074426;28;20107;-44
2021/11/13 04:42:38;;;;;;;4.03;3.28;;;;;;;;;;5073215;28;20516;-45
2021/11/13 04:45:04;;;;;;;4.80;2.90;;;;;;;;;;5073666;28;20060;-45
2021/11/13 04:47:33;;;;;;;3.30;3.00;;;;;;;;;;5073817;28;20490;-45
2021/11/13 04:49:59;;;;;;;3.67;3.17;;;;;;;;;;5073748;28;20052;-45
2021/11/13 04:52:25;;;;;;;3.83;3.13;;;;;;;;;;5073673;28;20080;-51
2021/11/13 04:54:51;;;;;;;3.67;2.90;;;;;;;;;;5073133;28;20465;-46
2021/11/13 04:57:17;;;;;;;3.88;3.17;;;;;;;;;;5072854;28;20373;-47
2021/11/13 04:59:43;;;;;;;4.00;3.08;;;;;;;;;;5073000;28;20151;-45
2021/11/13 05:02:10;;;;;;;5.57;3.13;;;;;;;;;;5073835;28;20497;-45
2021/11/13 05:04:37;;;;;;;3.42;3.13;;;;;;;;;;5072663;28;20121;-53
2021/11/13 05:07:03;;;;;;;3.60;3.05;;;;;;;;;;5073804;28;20413;-47
2021/11/13 05:09:29;;;;;;;4.97;3.10;;;;;;;;;;5073600;28;20024;-45
2021/11/13 05:11:55;;;;;;;3.00;2.70;;;;;;;;;;5072690;28;20028;-45
2021/11/13 05:14:21;;;;;;;3.50;2.70;;;;;;;;;;5073540;28;20370;-50
2021/11/13 05:16:47;;;;;;;3.45;2.65;;;;;;;;;;5072451;28;20493;-47
2021/11/13 05:19:13;;;;;;;3.97;3.00;;;;;;;;;;5073373;28;20052;-45
2021/11/13 05:21:39;;;;;;;4.28;3.20;;;;;;;;;;5069022;28;20425;-52
2021/11/13 05:24:05;;;;;;;2.95;2.55;;;;;;;;;;5067963;28;20024;-46
2021/11/13 05:26:34;;;;;;;3.65;3.00;;;;;;;;;;5073208;28;20033;-50
2021/11/13 05:29:00;;;;;;;3.60;2.95;;;;;;;;;;5073158;28;20025;-51
2021/11/13 05:31:26;;;;;;;3.08;2.55;;;;;;;;;;5073571;28;20033;-46
2021/11/13 05:33:52;;;;;;;3.90;2.63;;;;;;;;;;5072008;28;20039;-46
2021/11/13 05:36:19;;;;;;;3.83;2.80;;;;;;;;;;5072029;28;20086;-45
2021/11/13 05:38:45;;;;;;;3.42;2.60;;;;;;;;;;5061607;28;20025;-45
2021/11/13 05:41:11;;;;;;;3.78;3.17;;;;;;;;;;5054505;28;20025;-50
2021/11/13 05:43:38;;;;;;;2.75;2.55;;;;;;;;;;5053008;28;20021;-49
2021/11/13 05:46:04;;;;;;;3.47;3.10;;;;;;;;;;5051380;28;20021;-45
2021/11/13 05:48:30;;;;;;;3.33;2.85;;;;;;;;;;5052681;28;20028;-53
2021/11/13 05:50:56;;;;;;;3.05;2.47;;;;;;;;;;5051886;28;20364;-47
2021/11/13 05:53:22;;;;;;;3.55;3.00;;;;;;;;;;5053497;28;20374;-47
2021/11/13 05:55:48;;;;;;;4.00;2.85;;;;;;;;;;5052953;28;20043;-49
2021/11/13 05:58:14;;;;;;;3.05;2.72;;;;;;;;;;5052236;28;20021;-46
2021/11/13 06:00:41;;;;;;;3.33;2.55;;;;;;;;;;5051595;28;20025;-52
2021/11/13 06:03:07;;;;;;;3.28;2.95;;;;;;;;;;5052814;28;20029;-48
2021/11/13 06:05:40;;;;;;;3.33;3.03;;;;;;;;;;5052143;28;20040;-57
2021/11/13 06:08:06;;;;;;;2.92;2.63;;;;;;;;;;5052239;28;20053;-49
2021/11/13 06:10:40;;;;;;;3.05;2.45;;;;;;;;;;5052164;28;20445;-58
2021/11/13 06:13:06;;;;;;;3.58;2.80;;;;;;;;;;5055415;28;20020;-48
2021/11/13 06:15:38;;;;;;;3.13;2.60;;;;;;;;;;5052167;28;20082;-59
2021/11/13 06:18:05;;;;;;;3.88;3.25;;;;;;;;;;5053098;28;20029;-48
2021/11/13 06:20:31;;;;;;;3.63;2.70;;;;;;;;;;5053094;28;20374;-49
2021/11/13 06:22:57;;;;;;;3.80;2.72;;;;;;;;;;5053162;28;20044;-47
2021/11/13 06:25:23;;;;;;;3.45;3.10;;;;;;;;;;5052096;28;20025;-49
2021/11/13 06:27:49;;;;;;;3.72;2.65;;;;;;;;;;5053671;28;20037;-45
2021/11/13 06:30:16;;;;;;;3.05;2.75;;;;;;;;;;5053270;28;20428;-45
2021/11/13 06:32:44;;;;;;;3.15;2.70;;;;;;;;;;5052185;28;20029;-45
2021/11/13 06:35:10;;;;;;;3.00;2.70;;;;;;;;;;5052392;28;20606;-50
2021/11/13 06:37:37;;;;;;;3.55;2.88;;;;;;;;;;5051036;28;20061;-58
2021/11/13 06:40:04;;;;;;;3.17;2.85;;;;;;;;;;5054024;28;20028;-50
2021/11/13 06:42:31;;;;;;;3.95;2.90;;;;;;;;;;5051625;28;20025;-52
2021/11/13 06:44:57;;;;;;;5.35;3.88;;;;;;;;;;5052877;28;20029;-49
2021/11/13 06:47:23;;;;;;;3.97;3.38;;;;;;;;;;5051325;28;20025;-47
2021/11/13 06:49:49;;;;;;;3.58;2.97;;;;;;;;;;5052671;28;20075;-45
2021/11/13 06:52:15;;;;;;;3.67;2.80;;;;;;;;;;5051319;28;20024;-50
2021/11/13 06:54:42;;;;;;;3.55;2.53;;;;;;;;;;5052643;28;20043;-51
2021/11/13 06:57:08;;;;;;;4.03;2.63;;;;;;;;;;5051252;28;20028;-48
2021/11/13 06:59:40;;;;;;;4.32;2.88;;;;;;;;;;5052688;28;20036;-58
2021/11/13 07:02:06;;;;;;;3.28;2.78;;;;;;;;;;5051221;28;20367;-47
2021/11/13 07:04:32;;;;;;;2.95;2.60;;;;;;;;;;5052697;28;20083;-50
2021/11/13 07:06:58;;;;;;;3.88;3.13;;;;;;;;;;5050372;28;20441;-45
2021/11/13 07:09:24;;;;;;;3.05;2.60;;;;;;;;;;5052164;28;20474;-46
2021/11/13 07:11:50;;;;;;;3.42;3.13;;;;;;;;;;5050023;28;20755;-51
2021/11/13 07:14:16;;;;;;;3.42;2.78;;;;;;;;;;5051488;28;20378;-46
2021/11/13 07:16:42;;;;;;;3.28;2.30;;;;;;;;;;5050894;28;20042;-45
2021/11/13 07:19:09;;;;;;;3.03;2.72;;;;;;;;;;5051219;28;20052;-45
2021/11/13 07:21:38;;;;;;;3.92;3.20;;;;;;;;;;5052560;28;20374;-57
2021/11/13 07:24:04;;;;;;;2.47;2.20;;;;;;;;;;5055500;28;20020;-45
2021/11/13 07:26:30;;;;;;;3.78;3.03;;;;;;;;;;5051167;28;20029;-51
2021/11/13 07:29:03;;;;;;;3.60;3.03;;;;;;;;;;5049964;28;20521;-45
2021/11/13 07:31:29;;;;;;;3.40;2.90;;;;;;;;;;5050854;28;20021;-44
2021/11/13 07:33:55;;;;;;;3.85;2.58;;;;;;;;;;5052347;28;20032;-46
2021/11/13 07:36:21;;;;;;;3.53;2.58;;;;;;;;;;5050694;28;20363;-45
2021/11/13 07:38:47;;;;;;;5.07;2.97;;;;;;;;;;5049714;28;20024;-50
2021/11/13 07:41:16;;;;;;;3.13;2.63;;;;;;;;;;5051903;28;20384;-46
2021/11/13 07:43:42;;;;;;;3.65;2.50;;;;;;;;;;5051678;28;20036;-47
2021/11/13 07:46:08;;;;;;;2.45;2.25;;;;;;;;;;5050691;28;20374;-47
2021/11/13 07:48:37;;;;;;;3.30;2.83;;;;;;;;;;5050281;28;20060;-55
2021/11/13 07:51:07;;;;;;;4.13;3.03;;;;;;;;;;5067127;28;20032;-46
2021/11/13 07:53:40;;;;;;;4.47;2.42;;;;;;;;;;5069997;28;20028;-54
2021/11/13 07:56:06;;;;;;;3.03;2.38;;;;;;;;;;5072261;28;20029;-52
2021/11/13 07:58:32;;;;;;;3.35;2.50;;;;;;;;;;5071769;28;20032;-46
2021/11/13 08:00:58;;;;;;;4.07;2.65;;;;;;;;;;5070519;28;20028;-45
2021/11/13 08:03:24;;;;;;;4.53;3.22;;;;;;;;;;5071093;28;20020;-42
2021/11/13 08:05:50;;;;;;;6.00;2.70;;;;;;;;;;5068836;28;20024;-49
2021/11/13 08:08:16;;;;;;;4.15;2.72;;;;;;;;;;5069858;28;20021;-58
2021/11/13 08:10:42;;;;;;;3.30;3.00;;;;;;;;;;5069609;28;20039;-57
2021/11/13 08:13:12;;;;;;;5.97;3.05;;;;;;;;;;5071722;28;20035;-52
2021/11/13 08:15:39;;;;;;;4.88;2.80;;;;;;;;;;5070142;28;20024;-54
2021/11/13 08:18:06;;;;;;;4.65;3.22;;;;;;;;;;5071472;28;20346;-56
2021/11/13 08:20:32;;;;;;;3.55;2.50;;;;;;;;;;5070997;28;20208;-50
2021/11/13 08:22:58;;;;;;;4.10;2.80;;;;;;;;;;5056511;28;20029;-50
2021/11/13 08:25:24;;;;;;;7.35;2.78;;;;;;;;;;5051420;28;20047;-52
2021/11/13 08:27:51;;;;;;;6.15;3.03;;;;;;;;;;5065035;28;20035;-52
2021/11/13 08:30:17;;;;;;;5.78;2.80;;;;;;;;;;5071095;28;20096;-51
2021/11/13 08:32:45;;;;;;;6.70;2.80;;;;;;;;;;5070603;28;20024;-51
2021/11/13 08:35:12;;;;;;;4.03;2.63;;;;;;;;;;5071513;28;20493;-52
2021/11/13 08:37:40;;;;;;;6.15;3.58;;;;;;;;;;5070712;28;20040;-59
2021/11/13 08:40:07;;;;;;;6.47;3.05;;;;;;;;;;5071009;28;20131;-55
2021/11/13 08:42:33;;;;;;;6.15;2.75;;;;;;;;;;5071466;28;20029;-50
2021/11/13 08:44:59;;;;;;;11.52;2.80;;;;;;;;;;5070481;28;20032;-49
2021/11/13 08:47:25;;;;;;;11.20;3.00;;;;;;;;;;5070926;28;20474;-45
2021/11/13 08:49:53;;;;;;;6.95;2.95;;;;;;;;;;5070175;28;20474;-49
2021/11/13 08:52:19;;;;;;;7.68;2.90;;;;;;;;;;5071427;28;20024;-47
2021/11/13 08:54:47;;;;;;;6.05;3.00;;;;;;;;;;5070167;28;20040;-47
2021/11/13 08:57:13;;;;;;;6.95;3.45;;;;;;;;;;5070872;28;20032;-53
2021/11/13 08:59:40;;;;;;;11.93;3.63;;;;;;;;;;5070056;28;20032;-60
2021/11/13 09:02:09;;;;;;;5.68;2.95;;;;;;;;;;5071047;28;20036;-50
2021/11/13 09:04:39;;;;;;;7.45;2.90;;;;;;;;;;5071222;28;20074;-58
2021/11/13 09:07:06;;;;;;;6.72;3.30;;;;;;;;;;5050236;28;20028;-58
2021/11/13 09:09:35;;;;;;;8.40;3.03;;;;;;;;;;5071929;28;20036;-49
2021/11/13 09:12:03;;;;;;;6.82;3.33;;;;;;;;;;5072124;28;20052;-46
2021/11/13 09:14:32;;;;;;;4.50;2.67;;;;;;;;;;5074243;28;20030;-49
2021/11/13 09:16:59;;;;;;;4.70;2.92;;;;;;;;;;5072412;28;20617;-50
2021/11/13 09:19:25;;;;;;;4.68;2.75;;;;;;;;;;5072422;28;20040;-53
2021/11/13 09:21:52;;;;;;;6.55;3.22;;;;;;;;;;5068260;28;20370;-50
2021/11/13 09:24:19;;;;;;;4.45;2.90;;;;;;;;;;5054333;28;20037;-50
2021/11/13 09:26:45;;;;;;;9.00;3.00;;;;;;;;;;5057815;28;20422;-51
2021/11/13 09:29:11;;;;;;;4.38;2.65;;;;;;;;;;5073946;28;20033;-58
2021/11/13 09:31:44;;;;;;;7.85;2.85;;;;;;;;;;5074218;28;20028;-64
2021/11/13 09:34:15;;;;;;;5.65;3.05;;;;;;;;;;5073013;28;20052;-59
2021/11/13 09:36:41;;;;;;;5.72;2.83;;;;;;;;;;5071858;28;20079;-46
2021/11/13 09:39:08;;;;;;;6.63;3.40;;;;;;;;;;5054725;28;20051;-58
2021/11/13 09:41:34;;;;;;;7.72;2.70;;;;;;;;;;5073788;28;20176;-58
2021/11/13 09:44:00;;;;;;;5.85;3.53;;;;;;;;;;5072929;28;20032;-58
2021/11/13 09:46:26;;;;;;;3.75;2.22;;;;;;;;;;5073810;28;20024;-55
2021/11/13 09:48:53;;;;;;;5.10;2.55;;;;;;;;;;5071666;28;20017;-59
2021/11/13 09:51:20;;;;;;;3.75;2.90;;;;;;;;;;5071404;28;20078;-56
2021/11/13 09:53:46;;;;;;;6.72;2.72;;;;;;;;;;5073015;28;20020;-57
2021/11/13 09:56:13;;;;;;;6.20;3.47;;;;;;;;;;5073603;28;20102;-54
2021/11/13 09:58:45;;;;;;;6.07;3.15;;;;;;;;;;5073229;28;20103;-60
2021/11/13 10:01:12;;;;;;;5.93;3.13;;;;;;;;;;5073684;28;20060;-52
2021/11/13 10:03:40;;;;;;;7.53;2.65;;;;;;;;;;5073810;28;20048;-52
2021/11/13 10:06:09;;;;;;;6.28;2.90;;;;;;;;;;5062336;28;20033;-49
2021/11/13 10:08:36;;;;;;;4.93;2.70;;;;;;;;;;5071497;28;20052;-55
2021/11/13 10:11:08;;;;;;;8.10;3.15;;;;;;;;;;5072493;28;20029;-60
2021/11/13 10:13:36;;;;;;;8.20;3.25;;;;;;;;;;5073580;28;20449;-55
2021/11/13 10:16:04;;;;;;;5.88;2.85;;;;;;;;;;5072376;28;20625;-50
2021/11/13 10:18:31;;;;;;;4.95;2.60;;;;;;;;;;5073131;28;20024;-49
2021/11/13 10:20:57;;;;;;;4.55;2.90;;;;;;;;;;5072406;28;20032;-51
2021/11/13 10:23:26;;;;;;;5.35;3.20;;;;;;;;;;5055179;28;20095;-51
2021/11/13 10:25:59;;;;;;;6.10;3.08;;;;;;;;;;5056730;28;20056;-59
2021/11/13 10:28:25;;;;;;;6.47;3.03;;;;;;;;;;5053338;28;20029;-52
2021/11/13 10:31:04;;;;;;;4.90;3.05;;;;;;;;;;5053022;28;20417;-46
2021/11/13 10:33:33;;;;;;;5.60;3.00;;;;;;;;;;5053108;28;20028;-50
2021/11/13 10:36:00;;;;;;;4.30;2.53;;;;;;;;;;5052290;28;20075;-54
2021/11/13 10:38:27;;;;;;;7.03;2.97;;;;;;;;;;5053594;28;20033;-55
2021/11/13 10:40:54;;;;;;;8.55;3.08;;;;;;;;;;5052719;28;20028;-52
2021/11/13 10:43:30;;;;;;;7.70;3.05;;;;;;;;;;5053126;28;20028;-54
2021/11/13 10:45:57;;;;;;;12.30;3.83;;;;;;;;;;5052637;28;20017;-58
2021/11/13 10:48:23;;;;;;;8.25;2.88;;;;;;;;;;5053041;28;20106;-58
2021/11/13 10:50:49;;;;;;;8.75;3.05;;;;;;;;;;5052367;28;20478;-58
2021/11/13 10:53:23;;;;;;;10.90;3.25;;;;;;;;;;5052959;28;20104;-59
2021/11/13 10:56:03;;;;;;;8.80;3.22;;;;;;;;;;5052439;28;20025;-59
2021/11/13 10:58:30;;;;;;;8.93;3.85;;;;;;;;;;5053137;28;20111;-57
2021/11/13 11:01:05;;;;;;;6.93;2.90;;;;;;;;;;5052349;28;20029;-51
2021/11/13 11:03:37;;;;;;;11.60;3.83;;;;;;;;;;5052918;28;20033;-59
2021/11/13 11:06:03;;;;;;;17.15;3.35;;;;;;;;;;5051872;28;20393;-56
2021/11/13 11:08:34;;;;;;;35.85;4.03;;;;;;;;;;5052110;28;20075;-53
2021/11/13 11:11:03;;;;;;;8.55;3.47;;;;;;;;;;5054201;28;20031;-56
2021/11/13 11:13:44;;;;;;;9.07;3.70;;;;;;;;;;5053542;28;20021;-55
2021/11/13 11:16:21;;;;;;;10.40;3.57;;;;;;;;;;5044240;28;20036;-57
2021/11/13 11:18:58;;;;;;;9.07;2.92;;;;;;;;;;5052434;28;20260;-64
2021/11/13 11:21:37;;;;;;;9.40;3.42;;;;;;;;;;5052725;28;20025;-55
2021/11/13 11:24:13;;;;;;;9.13;3.25;;;;;;;;;;5052780;28;20075;-57
2021/11/13 11:26:40;;;;;;;6.63;3.15;;;;;;;;;;5052458;28;20078;-59
2021/11/13 11:29:07;;;;;;;5.95;3.10;;;;;;;;;;5052489;28;20112;-56
2021/11/13 11:31:47;;;;;;;7.38;3.03;;;;;;;;;;5052526;28;20029;-57
2021/11/13 11:34:20;;;;;;;5.32;2.80;;;;;;;;;;5051705;28;20055;-56
2021/11/13 11:36:47;;;;;;;5.85;3.03;;;;;;;;;;5051406;28;20120;-57
2021/11/13 11:39:14;;;;;;;6.68;3.65;;;;;;;;;;5052512;28;20029;-57
2021/11/13 11:41:41;;;;;;;7.53;3.42;;;;;;;;;;5052422;28;20339;-56
2021/11/13 11:44:08;;;;;;;6.93;3.45;;;;;;;;;;5052341;28;20466;-56
2021/11/13 11:46:34;;;;;;;6.20;3.47;;;;;;;;;;5051857;28;20421;-47
2021/11/13 11:49:01;;;;;;;7.95;3.20;;;;;;;;;;5051276;28;20025;-57
2021/11/13 11:51:27;;;;;;;3.97;2.92;;;;;;;;;;5052132;28;20082;-57
2021/11/13 11:53:55;;;;;;;4.50;3.00;;;;;;;;;;5051683;28;20420;-56
2021/11/13 11:56:22;;;;;;;5.35;3.22;;;;;;;;;;5052034;28;20032;-57
2021/11/13 11:58:48;;;;;;;3.47;3.10;;;;;;;;;;5051449;28;20063;-57
2021/11/13 12:01:24;;;;;;;5.63;3.58;;;;;;;;;;5051812;28;20104;-57
2021/11/13 12:03:50;;;;;;;5.05;3.15;;;;;;;;;;5051431;28;20588;-56
2021/11/13 12:06:16;;;;;;;5.78;3.85;;;;;;;;;;5051931;28;20378;-58
2021/11/13 12:08:42;;;;;;;4.35;3.40;;;;;;;;;;5051964;28;20550;-58
2021/11/13 12:11:17;;;;;;;7.00;3.53;;;;;;;;;;5052100;28;20025;-58
2021/11/13 12:13:44;;;;;;;3.88;3.20;;;;;;;;;;5051316;28;20025;-61
2021/11/13 12:16:20;;;;;;;8.70;3.97;;;;;;;;;;5049479;28;20576;-58
2021/11/13 12:18:48;;;;;;;6.95;3.53;;;;;;;;;;5051439;28;20036;-58
2021/11/13 12:21:15;;;;;;;3.97;3.00;;;;;;;;;;5051899;28;20091;-58
2021/11/13 12:23:43;;;;;;;3.65;3.10;;;;;;;;;;5051535;28;20021;-57
2021/11/13 12:26:11;;;;;;;5.35;3.50;;;;;;;;;;5051858;28;20378;-57
2021/11/13 12:28:57;;;;;;;4.47;3.00;;;;;;;;;;5051965;28;20032;-56
2021/11/13 12:31:50;;;;;;;4.53;3.80;;;;;;;;;;5051339;28;20025;-58
2021/11/13 12:34:18;;;;;;;7.32;3.20;;;;;;;;;;5049816;28;20049;-56
2021/11/13 12:36:57;;;;;;;9.50;3.83;;;;;;;;;;5051029;28;20039;-64
2021/11/13 12:39:23;;;;;;;3.67;3.20;;;;;;;;;;5051395;28;20490;-58
2021/11/13 12:41:51;;;;;;;5.13;3.40;;;;;;;;;;5051081;28;20528;-56
2021/11/13 12:44:20;;;;;;;4.03;3.03;;;;;;;;;;5051668;28;20090;-57
2021/11/13 12:46:54;;;;;;;4.85;3.33;;;;;;;;;;5053525;28;20033;-58
2021/11/13 12:49:23;;;;;;;5.78;3.38;;;;;;;;;;5055711;28;20055;-57
2021/11/13 12:51:52;;;;;;;4.05;3.10;;;;;;;;;;5054892;28;20047;-56
2021/11/13 12:54:23;;;;;;;4.65;3.22;;;;;;;;;;5055351;28;20025;-57
2021/11/13 12:56:49;;;;;;;7.32;3.67;;;;;;;;;;5054631;28;20021;-55
2021/11/13 12:59:15;;;;;;;4.75;3.67;;;;;;;;;;5055520;28;20054;-53
2021/11/13 13:01:52;;;;;;;7.60;3.60;;;;;;;;;;5055231;28;20033;-53
2021/11/13 13:04:19;;;;;;;5.18;3.60;;;;;;;;;;5055293;28;20108;-50
2021/11/13 13:06:45;;;;;;;4.53;3.28;;;;;;;;;;5054614;28;20429;-57
2021/11/13 13:09:12;;;;;;;5.50;4.03;;;;;;;;;;5055192;28;20028;-51
2021/11/13 13:11:50;;;;;;;5.53;4.05;;;;;;;;;;5055114;28;20386;-60
2021/11/13 13:14:17;;;;;;;6.13;4.45;;;;;;;;;;5055111;28;20029;-57
2021/11/13 13:16:45;;;;;;;5.68;4.32;;;;;;;;;;5054595;28;20021;-61
2021/11/13 13:19:11;;;;;;;8.00;3.78;;;;;;;;;;5055029;28;20141;-55
2021/11/13 13:21:37;;;;;;;6.95;4.40;;;;;;;;;;5055174;28;20029;-56
2021/11/13 13:24:13;;;;;;;5.97;3.50;;;;;;;;;;5053798;28;20021;-57
2021/11/13 13:26:40;;;;;;;6.30;4.10;;;;;;;;;;5054878;28;20416;-56
2021/11/13 13:29:17;;;;;;;5.22;4.05;;;;;;;;;;5054288;28;20079;-51
2021/11/13 13:32:00;;;;;;;6.82;3.85;;;;;;;;;;5054860;28;20108;-54
2021/11/13 13:34:27;;;;;;;7.30;5.10;;;;;;;;;;5054579;28;20045;-54
2021/11/13 13:37:00;;;;;;;9.50;3.70;;;;;;;;;;5054015;28;20025;-50
2021/11/13 13:39:26;;;;;;;9.57;3.90;;;;;;;;;;5054718;28;20032;-51
2021/11/13 13:41:53;;;;;;;7.72;4.40;;;;;;;;;;5054126;28;20079;-49
2021/11/13 13:44:20;;;;;;;5.07;4.00;;;;;;;;;;5054153;28;20023;-57
2021/11/13 13:46:46;;;;;;;7.53;4.50;;;;;;;;;;5053791;28;20501;-52
2021/11/13 13:49:14;;;;;;;11.82;4.20;;;;;;;;;;5054520;28;20029;-50
2021/11/13 13:51:45;;;;;;;8.07;4.53;;;;;;;;;;5054540;28;20061;-50
2021/11/13 13:54:14;;;;;;;8.63;4.77;;;;;;;;;;5054372;28;20497;-49
2021/11/13 13:56:50;;;;;;;6.32;3.40;;;;;;;;;;5053825;28;20056;-57
2021/11/13 13:59:21;;;;;;;7.07;4.32;;;;;;;;;;5052622;28;20393;-54
2021/11/13 14:01:58;;;;;;;7.82;3.70;;;;;;;;;;5053445;28;20025;-65
2021/11/13 14:04:25;;;;;;;4.65;3.53;;;;;;;;;;5053661;28;20423;-54
2021/11/13 14:06:52;;;;;;;7.00;3.90;;;;;;;;;;5032952;28;20037;-56
2021/11/13 14:09:18;;;;;;;4.30;3.50;;;;;;;;;;5033822;28;20029;-54
2021/11/13 14:11:44;;;;;;;6.22;3.83;;;;;;;;;;5033873;28;20022;-54
2021/11/13 14:14:23;;;;;;;6.03;3.75;;;;;;;;;;5033044;28;20030;-54
2021/11/13 14:16:50;;;;;;;5.45;3.83;;;;;;;;;;5071753;28;20029;-65
2021/11/13 14:19:17;;;;;;;11.32;3.83;;;;;;;;;;5073453;28;20040;-54
2021/11/13 14:21:43;;;;;;;5.75;3.83;;;;;;;;;;5073049;28;20048;-54
2021/11/13 14:24:20;;;;;;;12.68;4.30;;;;;;;;;;5072616;28;20502;-51
2021/11/13 14:26:57;;;;;;;5.88;3.88;;;;;;;;;;5073170;28;20031;-54
2021/11/13 14:29:23;;;;;;;4.93;3.53;;;;;;;;;;5072928;28;20016;-55
2021/11/13 14:31:51;;;;;;;5.90;4.38;;;;;;;;;;5072942;28;20024;-66
2021/11/13 14:34:20;;;;;;;4.65;3.42;;;;;;;;;;5072544;28;20048;-53
2021/11/13 14:36:52;;;;;;;10.18;3.97;;;;;;;;;;5072662;28;20036;-54
2021/11/13 14:39:23;;;;;;;6.78;3.90;;;;;;;;;;5072962;28;20028;-55
2021/11/13 14:41:56;;;;;;;6.07;3.78;;;;;;;;;;5072379;28;20034;-65
2021/11/13 14:44:24;;;;;;;5.68;4.03;;;;;;;;;;5073128;28;20453;-53
2021/11/13 14:46:56;;;;;;;4.85;3.35;;;;;;;;;;5072162;28;20032;-65